Twist — WDF2212 — position and weather

sailwx.info

Track history (hours):
 
Tides and Currents Weather Stations Pressure Air Temp Water Temp Dewpoint Dewpoint Depression Visibility Wind Speed Wind Dir Waves Ship Positions

Twist

Owner: Mack, Robert B, Bainbridge Island, WA. More information available from US FCC via Universal Licensing System and Coast Guard Vessel Documentation Center.

Last reported at 2018-Aug-13 01:12 UTC. Time now 2018-Aug-16 07:59 UTC.
Position N 47°37' W 122°30'.

Length 15 m.

Type: Sailing vessel. MMSI: 367426080.

Date/timePositionNaut miles runAvg speedWind from/ knotsBaromVisibWave heightAir tempDewpointWater temp
2018-Aug-13 01:12N 47°37' W 122°30'1 5.5
2018-Aug-13 01:01N 47°36' W 122°30'3 6.5
2018-Aug-13 00:29N 47°33' W 122°28'3 6.9
2018-Aug-13 00:00N 47°30' W 122°30'8 7.1
2018-Aug-12 22:55N 47°22' W 122°32'5 0.1
2018-Aug-10 21:03N 47°27' W 122°31'1 7.1
2018-Aug-10 20:58N 47°28' W 122°31'3 7.2
2018-Aug-10 20:30N 47°31' W 122°29'3 6.2
2018-Aug-10 20:00N 47°34' W 122°29'2 3.5
2018-Aug-10 19:30N 47°36' W 122°29'  
2018-Aug-05 01:58N 47°37' W 122°30'3 6.1
2018-Aug-05 01:27N 47°35' W 122°27'1 2.3
2018-Aug-05 01:00N 47°34' W 122°28'1 1.1
2018-Aug-05 00:30N 47°34' W 122°29'2 3.7
2018-Aug-04 23:58N 47°35' W 122°26'2 1.1
2018-Aug-04 22:15N 47°37' W 122°26'1 2.7
2018-Aug-04 21:52N 47°37' W 122°28'1 2.8
2018-Aug-04 21:28N 47°37' W 122°29'  
Track history (hours):
 
Tides and Currents Weather Stations Pressure Air Temp Water Temp Dewpoint Dewpoint Depression Visibility Wind Speed Wind Dir Waves Ship Positions

Twist

Owner: Mack, Robert B, Bainbridge Island, WA. More information available from US FCC via Universal Licensing System and Coast Guard Vessel Documentation Center.

Last reported at 2018-Aug-13 01:12 UTC. Time now 2018-Aug-16 07:59 UTC.
Position N 47°37' W 122°30'.

Length 15 m.

Type: Sailing vessel. MMSI: 367426080.

Date/timePositionNaut miles runAvg speedWind from/ knotsBaromVisibWave heightAir tempDewpointWater temp
2018-Aug-13 01:12N 47°37' W 122°30'1 5.5
2018-Aug-13 01:01N 47°36' W 122°30'3 6.5
2018-Aug-13 00:29N 47°33' W 122°28'3 6.9
2018-Aug-13 00:00N 47°30' W 122°30'8 7.1
2018-Aug-12 22:55N 47°22' W 122°32'5 0.1
2018-Aug-10 21:03N 47°27' W 122°31'1 7.1
2018-Aug-10 20:58N 47°28' W 122°31'3 7.2
2018-Aug-10 20:30N 47°31' W 122°29'3 6.2
2018-Aug-10 20:00N 47°34' W 122°29'2 3.5
2018-Aug-10 19:30N 47°36' W 122°29'  
2018-Aug-05 01:58N 47°37' W 122°30'3 6.1
2018-Aug-05 01:27N 47°35' W 122°27'1 2.3
2018-Aug-05 01:00N 47°34' W 122°28'1 1.1
2018-Aug-05 00:30N 47°34' W 122°29'2 3.7
2018-Aug-04 23:58N 47°35' W 122°26'2 1.1
2018-Aug-04 22:15N 47°37' W 122°26'1 2.7
2018-Aug-04 21:52N 47°37' W 122°28'1 2.8
2018-Aug-04 21:28N 47°37' W 122°29'  

Dump ship's entire track history